Urb La Rosaleda Ii, Puerto Rico
Current Conditions -  °F | °C
As of 6:56 PM on Friday 31 Oct 2014 (Local Time) from TJSJ Reporting Station
Few Clouds Few Clouds  
Wind Chill: 82°   Ceiling: Unl
Heat Index: 89°   Visibility: 10mi
Dew Point: 75°   Wind: 5mph
Humidity: 79%   Direction: 170°S
Pressure: 29.89"   Gusts: NA
Location:  18.4519°N, 66.1817°W
Report Text: TJSJ 312256Z 17004KT 10SM FEW080 28/24 A2989 RMK AO2 SLP119 T02780239
Loading
Personal Weather Stations






























Interactive Weather Map
Tropical Storm Tracking
New forecast layout! Learn more

10-Day Weather Forecast

Advertisements
Track Severe Weather on mobile